createdAt,value
2018-05-21T00:00:49.662Z,985.349
2018-05-21T00:02:49.873Z,985.333
2018-05-21T00:04:50.212Z,985.313
2018-05-21T00:06:50.501Z,985.313
2018-05-21T00:08:49.689Z,985.294
2018-05-21T00:10:49.798Z,985.297
2018-05-21T00:12:50.044Z,985.289
2018-05-21T00:14:50.193Z,985.285
2018-05-21T00:16:50.779Z,985.264
2018-05-21T00:18:50.246Z,985.262
2018-05-21T00:20:50.400Z,985.255
2018-05-21T00:22:50.565Z,985.241
2018-05-21T00:24:49.695Z,985.238
2018-05-21T00:26:49.985Z,985.229
2018-05-21T00:28:50.092Z,985.230
2018-05-21T00:30:50.227Z,985.225
2018-05-21T00:32:50.403Z,985.225
2018-05-21T00:34:49.802Z,985.196
2018-05-21T00:36:50.026Z,985.172
2018-05-21T00:38:50.210Z,985.155
2018-05-21T00:40:50.338Z,985.118
2018-05-21T00:42:50.590Z,985.104
2018-05-21T00:44:49.804Z,985.099
2018-05-21T00:46:50.075Z,985.102
2018-05-21T00:48:50.284Z,985.085
2018-05-21T00:50:50.455Z,985.072
2018-05-21T00:52:49.633Z,985.057
2018-05-21T00:54:49.786Z,985.043
2018-05-21T00:56:49.979Z,985.062
2018-05-21T00:58:50.110Z,985.066
2018-05-21T01:00:50.352Z,985.063
2018-05-21T01:02:50.546Z,985.056
2018-05-21T01:04:49.851Z,985.028
2018-05-21T01:06:49.989Z,985.011
2018-05-21T01:08:50.153Z,985.004
2018-05-21T01:10:50.255Z,984.981
2018-05-21T01:12:50.377Z,984.943
2018-05-21T01:14:50.551Z,984.946
2018-05-21T01:16:49.775Z,984.938
2018-05-21T01:18:49.935Z,984.913
2018-05-21T01:20:50.061Z,984.904
2018-05-21T01:22:50.210Z,984.910
2018-05-21T01:24:50.404Z,984.906
2018-05-21T01:26:49.620Z,984.897
2018-05-21T01:28:49.808Z,984.902
2018-05-21T01:30:49.994Z,984.891
2018-05-21T01:32:50.103Z,984.891
2018-05-21T01:34:50.526Z,984.894
2018-05-21T01:36:49.820Z,984.877
2018-05-21T01:38:49.899Z,984.877
2018-05-21T01:40:50.066Z,984.888
2018-05-21T01:42:50.184Z,984.888
2018-05-21T01:44:50.326Z,984.895
2018-05-21T01:46:50.562Z,984.874
2018-05-21T01:48:49.742Z,984.875
2018-05-21T01:50:49.890Z,984.854
2018-05-21T01:52:50.082Z,984.832
2018-05-21T01:54:50.185Z,984.817
2018-05-21T01:56:50.360Z,984.788
2018-05-21T01:58:50.476Z,984.761
2018-05-21T02:00:49.652Z,984.752
2018-05-21T02:02:49.747Z,984.755
2018-05-21T02:04:50.084Z,984.745
2018-05-21T02:06:50.265Z,984.741
2018-05-21T02:08:50.151Z,984.738
2018-05-21T02:10:50.278Z,984.726
2018-05-21T02:12:50.428Z,984.713
2018-05-21T02:14:50.601Z,984.716
2018-05-21T02:16:49.806Z,984.707
2018-05-21T02:18:49.963Z,984.701
2018-05-21T02:20:50.125Z,984.716
2018-05-21T02:22:50.278Z,984.709
2018-05-21T02:24:50.402Z,984.698
2018-05-21T02:26:50.645Z,984.684
2018-05-21T02:28:50.026Z,984.673
2018-05-21T02:30:50.240Z,984.669
2018-05-21T02:32:50.382Z,984.675
2018-05-21T02:34:49.788Z,984.663
2018-05-21T02:36:50.081Z,984.657
2018-05-21T02:38:50.229Z,984.650
2018-05-21T02:40:50.348Z,984.669
2018-05-21T02:42:50.547Z,984.662
2018-05-21T02:44:49.704Z,984.656
2018-05-21T02:46:49.956Z,984.641
2018-05-21T02:48:50.178Z,984.620
2018-05-21T02:50:50.314Z,984.613
2018-05-21T02:52:50.484Z,984.609
2018-05-21T02:54:50.629Z,984.613
2018-05-21T02:56:49.913Z,984.602
2018-05-21T02:58:50.133Z,984.608
2018-05-21T03:00:50.300Z,984.589
2018-05-21T03:02:50.563Z,984.588
2018-05-21T03:04:49.908Z,984.596
2018-05-21T03:06:50.210Z,984.609
2018-05-21T03:08:50.335Z,984.609
2018-05-21T03:10:50.487Z,984.614
2018-05-21T03:12:49.673Z,984.612
2018-05-21T03:14:49.794Z,984.597
2018-05-21T03:16:50.129Z,984.603
2018-05-21T03:18:50.242Z,984.598
2018-05-21T03:20:50.347Z,984.588
2018-05-21T03:22:50.549Z,984.595
2018-05-21T03:24:49.681Z,984.591
2018-05-21T03:26:49.915Z,984.594
2018-05-21T03:28:50.135Z,984.601
2018-05-21T03:30:50.319Z,984.587
2018-05-21T03:32:50.529Z,984.563
2018-05-21T03:34:49.910Z,984.567
2018-05-21T03:36:50.227Z,984.563
2018-05-21T03:38:50.373Z,984.542
2018-05-21T03:40:50.514Z,984.527
2018-05-21T03:42:49.638Z,984.527
2018-05-21T03:44:49.819Z,984.538
2018-05-21T03:46:49.978Z,984.517
2018-05-21T03:48:50.132Z,984.516
2018-05-21T03:50:50.290Z,984.496
2018-05-21T03:52:50.463Z,984.491
2018-05-21T03:54:50.661Z,984.491
2018-05-21T03:56:49.858Z,984.521
2018-05-21T03:58:50.016Z,984.538
2018-05-21T04:00:50.168Z,984.524
2018-05-21T04:02:50.261Z,984.516
2018-05-21T04:04:49.921Z,984.506
2018-05-21T04:06:50.197Z,984.504
2018-05-21T04:08:50.332Z,984.513
2018-05-21T04:10:50.498Z,984.510
2018-05-21T04:12:49.718Z,984.521
2018-05-21T04:14:49.864Z,984.516
2018-05-21T04:16:50.026Z,984.515
2018-05-21T04:18:50.560Z,984.501
2018-05-21T04:20:50.275Z,984.488
2018-05-21T04:22:50.381Z,984.500
2018-05-21T04:24:50.543Z,984.493
2018-05-21T04:26:50.111Z,984.496
2018-05-21T04:28:50.234Z,984.488
2018-05-21T04:30:50.438Z,984.490
2018-05-21T04:32:50.552Z,984.491
2018-05-21T04:34:49.828Z,984.467
2018-05-21T04:36:50.028Z,984.434
2018-05-21T04:38:50.184Z,984.415
2018-05-21T04:40:50.322Z,984.416
2018-05-21T04:42:50.425Z,984.440
2018-05-21T04:44:50.602Z,984.430
2018-05-21T04:46:49.825Z,984.437
2018-05-21T04:48:49.966Z,984.464
2018-05-21T04:50:50.179Z,984.451
2018-05-21T04:52:50.386Z,984.464
2018-05-21T04:54:49.614Z,984.455
2018-05-21T04:56:49.828Z,984.472
2018-05-21T04:58:49.958Z,984.472
2018-05-21T05:00:50.126Z,984.469
2018-05-21T05:02:50.269Z,984.459
2018-05-21T05:04:49.648Z,984.460
2018-05-21T05:06:49.950Z,984.459
2018-05-21T05:08:50.098Z,984.443
2018-05-21T05:10:50.288Z,984.434
2018-05-21T05:12:50.406Z,984.424
2018-05-21T05:14:50.497Z,984.425
2018-05-21T05:16:49.668Z,984.414
2018-05-21T05:18:49.770Z,984.407
2018-05-21T05:20:49.961Z,984.397
2018-05-21T05:22:50.063Z,984.381
2018-05-21T05:24:50.200Z,984.361
2018-05-21T05:26:50.403Z,984.339
2018-05-21T05:28:50.614Z,984.323
2018-05-21T05:30:49.751Z,984.313
2018-05-21T05:32:49.947Z,984.312
2018-05-21T05:34:50.402Z,984.311
2018-05-21T05:36:49.834Z,984.299
2018-05-21T05:38:49.950Z,984.295
2018-05-21T05:40:50.173Z,984.293
2018-05-21T05:42:50.294Z,984.284
2018-05-21T05:44:50.554Z,984.298
2018-05-21T05:46:49.805Z,984.298
2018-05-21T05:48:49.977Z,984.309
2018-05-21T05:50:50.351Z,984.295
2018-05-21T05:52:50.475Z,984.304
2018-05-21T05:54:50.588Z,984.302
2018-05-21T05:56:49.723Z,984.287
2018-05-21T05:58:49.874Z,984.287
2018-05-21T06:00:50.077Z,984.306
2018-05-21T06:02:50.294Z,984.323
2018-05-21T06:04:49.667Z,984.317
2018-05-21T06:06:49.869Z,984.321
2018-05-21T06:08:50.033Z,984.297
2018-05-21T06:10:50.185Z,984.302
2018-05-21T06:12:50.323Z,984.286
2018-05-21T06:14:50.455Z,984.283
2018-05-21T06:16:49.657Z,984.278
2018-05-21T06:18:49.888Z,984.273
2018-05-21T06:20:50.067Z,984.283
2018-05-21T06:22:50.313Z,984.258
2018-05-21T06:24:50.447Z,984.238
2018-05-21T06:26:49.662Z,984.246
2018-05-21T06:28:49.800Z,984.223
2018-05-21T06:30:49.936Z,984.225
2018-05-21T06:32:50.119Z,984.209
2018-05-21T06:34:50.441Z,984.209
2018-05-21T06:36:49.752Z,984.213
2018-05-21T06:38:49.881Z,984.191
2018-05-21T06:40:50.035Z,984.164
2018-05-21T06:42:50.261Z,984.136
2018-05-21T06:44:50.428Z,984.161
2018-05-21T06:46:49.742Z,984.159
2018-05-21T06:48:49.883Z,984.133
2018-05-21T06:50:50.063Z,984.135
2018-05-21T06:52:50.249Z,984.142
2018-05-21T06:54:50.396Z,984.128
2018-05-21T06:56:49.728Z,984.115
2018-05-21T06:58:49.887Z,984.091
2018-05-21T07:00:50.174Z,984.080
2018-05-21T07:02:50.338Z,984.054
2018-05-21T07:04:49.688Z,984.050
2018-05-21T07:06:49.871Z,984.049
2018-05-21T07:08:50.119Z,984.055
2018-05-21T07:10:50.265Z,984.053
2018-05-21T07:12:50.375Z,984.022
2018-05-21T07:14:50.486Z,984.029
2018-05-21T07:16:49.691Z,983.971
2018-05-21T07:18:49.815Z,983.936
2018-05-21T07:20:49.911Z,983.928
2018-05-21T07:22:50.141Z,983.924
2018-05-21T07:24:50.268Z,983.923
2018-05-21T07:26:50.432Z,983.915
2018-05-21T07:28:50.566Z,983.912
2018-05-21T07:30:49.728Z,983.912
2018-05-21T07:32:49.815Z,983.879
2018-05-21T07:34:50.119Z,983.867
2018-05-21T07:36:50.364Z,983.818
2018-05-21T07:38:50.830Z,983.801
2018-05-21T07:40:49.745Z,983.762
2018-05-21T07:42:49.899Z,983.752
2018-05-21T07:44:50.184Z,983.723
2018-05-21T07:46:50.563Z,983.698
2018-05-21T07:48:49.680Z,983.674
2018-05-21T07:50:49.789Z,983.672
2018-05-21T07:52:49.929Z,983.652
2018-05-21T07:54:50.060Z,983.646
2018-05-21T07:56:50.282Z,983.603
2018-05-21T07:58:50.402Z,983.595
2018-05-21T08:00:50.558Z,983.582
2018-05-21T08:02:49.752Z,983.566
2018-05-21T08:04:50.185Z,983.553
2018-05-21T08:06:50.394Z,983.567
2018-05-21T08:08:50.529Z,983.544
2018-05-21T08:10:49.697Z,983.581
2018-05-21T08:12:49.840Z,983.571
2018-05-21T08:14:50.437Z,983.532
2018-05-21T08:16:50.295Z,983.526
2018-05-21T08:18:50.506Z,983.520
2018-05-21T08:20:50.644Z,983.465
2018-05-21T08:22:49.763Z,983.465
2018-05-21T08:24:49.884Z,983.438
2018-05-21T08:26:50.098Z,983.418
2018-05-21T08:28:50.332Z,983.405
2018-05-21T08:30:50.552Z,983.358
2018-05-21T08:32:49.650Z,983.341
2018-05-21T08:34:49.980Z,983.310
2018-05-21T08:36:50.255Z,983.249
2018-05-21T08:38:50.371Z,983.196
2018-05-21T08:40:50.547Z,983.156
2018-05-21T08:42:49.797Z,983.157
2018-05-21T08:44:49.895Z,983.134
2018-05-21T08:46:50.126Z,983.150
2018-05-21T08:48:50.682Z,983.144
2018-05-21T08:50:50.629Z,983.144
2018-05-21T08:52:49.787Z,983.148
2018-05-21T08:54:49.890Z,983.155
2018-05-21T08:56:50.034Z,983.148
2018-05-21T08:58:50.355Z,983.120
2018-05-21T09:00:49.769Z,983.136
2018-05-21T09:02:49.890Z,983.084
2018-05-21T09:04:50.257Z,983.060
2018-05-21T09:06:50.462Z,983.037
2018-05-21T09:08:49.653Z,983.010
2018-05-21T09:10:49.874Z,982.997
2018-05-21T09:12:49.992Z,982.948
2018-05-21T09:14:50.246Z,982.936
2018-05-21T09:16:50.408Z,982.911
2018-05-21T09:18:50.515Z,982.894
2018-05-21T09:20:49.613Z,982.860
2018-05-21T09:22:49.785Z,982.822
2018-05-21T09:24:49.984Z,982.781
2018-05-21T09:26:50.242Z,982.794
2018-05-21T09:28:50.343Z,982.795
2018-05-21T09:30:50.488Z,982.757
2018-05-21T09:32:49.659Z,982.699
2018-05-21T09:34:50.085Z,982.732
2018-05-21T09:36:50.307Z,982.718
2018-05-21T09:38:50.433Z,982.706
2018-05-21T09:40:50.533Z,982.702
2018-05-21T09:42:49.670Z,982.693
2018-05-21T09:44:49.770Z,982.683
2018-05-21T09:46:50.012Z,982.706
2018-05-21T09:48:50.512Z,982.687
2018-05-21T09:50:49.724Z,982.638
2018-05-21T09:52:49.864Z,982.627
2018-05-21T09:54:49.996Z,982.615
2018-05-21T09:56:50.251Z,982.632
2018-05-21T09:58:50.347Z,982.634
2018-05-21T10:00:50.476Z,982.644
2018-05-21T10:02:50.663Z,982.644
2018-05-21T10:04:49.904Z,982.571
2018-05-21T10:06:50.028Z,982.556
2018-05-21T10:08:50.208Z,982.516
2018-05-21T10:10:50.476Z,982.458
2018-05-21T10:12:49.718Z,982.453
2018-05-21T10:14:49.848Z,982.454
2018-05-21T10:16:50.142Z,982.452
2018-05-21T10:18:50.340Z,982.453
2018-05-21T10:20:50.502Z,982.415
2018-05-21T10:22:49.707Z,982.343
2018-05-21T10:24:49.851Z,982.310
2018-05-21T10:26:50.135Z,982.255
2018-05-21T10:28:50.251Z,982.198
2018-05-21T10:30:50.388Z,982.182
2018-05-21T10:32:50.516Z,982.178
2018-05-21T10:34:50.036Z,982.162
2018-05-21T10:36:50.270Z,982.166
2018-05-21T10:38:50.372Z,982.103
2018-05-21T10:40:50.565Z,982.074
2018-05-21T10:42:49.691Z,982.074
2018-05-21T10:44:49.892Z,982.017
2018-05-21T10:46:50.104Z,982.003
2018-05-21T10:48:50.249Z,982.006
2018-05-21T10:50:50.365Z,981.954
2018-05-21T10:52:50.465Z,981.942
2018-05-21T10:54:50.597Z,981.872
2018-05-21T10:56:49.827Z,981.813
2018-05-21T10:58:50.148Z,981.763
2018-05-21T11:00:50.320Z,981.789
2018-05-21T11:02:50.419Z,981.809
2018-05-21T11:04:49.950Z,981.793
2018-05-21T11:06:50.197Z,981.753
2018-05-21T11:08:50.336Z,981.758
2018-05-21T11:10:50.583Z,981.702
2018-05-21T11:12:49.996Z,981.708
2018-05-21T11:14:50.137Z,981.656
2018-05-21T11:16:50.372Z,981.627
2018-05-21T11:18:50.548Z,981.699
2018-05-21T11:20:49.697Z,981.694
2018-05-21T11:22:49.822Z,981.668
2018-05-21T11:24:49.963Z,981.656
2018-05-21T11:26:50.243Z,981.610
2018-05-21T11:28:50.438Z,981.583
2018-05-21T11:30:50.545Z,981.545
2018-05-21T11:32:49.760Z,981.486
2018-05-21T11:34:50.193Z,981.506
2018-05-21T11:36:50.421Z,981.545
2018-05-21T11:38:50.585Z,981.532
2018-05-21T11:40:49.702Z,981.501
2018-05-21T11:42:49.849Z,981.431
2018-05-21T11:44:50.006Z,981.424
2018-05-21T11:46:50.279Z,981.424
2018-05-21T11:48:50.505Z,981.372
2018-05-21T11:50:50.592Z,981.410
2018-05-21T11:52:49.742Z,981.435
2018-05-21T11:54:49.907Z,981.396
2018-05-21T11:56:50.088Z,981.429
2018-05-21T11:58:50.241Z,981.436
2018-05-21T12:00:50.422Z,981.409
2018-05-21T12:02:50.566Z,981.373
2018-05-21T12:04:49.861Z,981.356
2018-05-21T12:06:50.156Z,981.358
2018-05-21T12:08:50.321Z,981.351
2018-05-21T12:10:50.494Z,981.337
2018-05-21T12:12:49.628Z,981.311
2018-05-21T12:14:49.753Z,981.278
2018-05-21T12:16:49.945Z,981.252
2018-05-21T12:18:50.123Z,981.244
2018-05-21T12:20:50.293Z,981.213
2018-05-21T12:22:50.442Z,981.220
2018-05-21T12:24:50.620Z,981.190
2018-05-21T12:26:49.809Z,981.201
2018-05-21T12:28:50.207Z,981.222
2018-05-21T12:30:49.855Z,981.195
2018-05-21T12:32:49.983Z,981.129
2018-05-21T12:34:50.352Z,981.091
2018-05-21T12:36:49.661Z,981.026
2018-05-21T12:38:49.781Z,981.105
2018-05-21T12:40:49.938Z,981.102
2018-05-21T12:42:50.030Z,981.109
2018-05-21T12:44:50.119Z,981.102
2018-05-21T12:46:50.612Z,981.054
2018-05-21T12:48:50.003Z,981.071
2018-05-21T12:50:50.188Z,981.092
2018-05-21T12:52:50.323Z,981.102
2018-05-21T12:54:50.437Z,981.140
2018-05-21T12:56:49.652Z,981.126
2018-05-21T12:58:49.772Z,981.157
2018-05-21T13:00:49.894Z,981.115
2018-05-21T13:02:50.076Z,981.079
2018-05-21T13:04:50.602Z,981.089
2018-05-21T13:06:49.764Z,981.062
2018-05-21T13:08:49.890Z,981.030
2018-05-21T13:10:50.015Z,980.958
2018-05-21T13:12:50.153Z,980.915
2018-05-21T13:14:50.340Z,980.901
2018-05-21T13:16:50.539Z,980.909
2018-05-21T13:18:49.709Z,980.942
2018-05-21T13:20:49.857Z,980.944
2018-05-21T13:22:49.953Z,980.932
2018-05-21T13:24:50.080Z,980.932
2018-05-21T13:26:50.270Z,980.868
2018-05-21T13:28:50.315Z,980.882
2018-05-21T13:30:50.463Z,980.882
2018-05-21T13:32:50.567Z,980.866
2018-05-21T13:34:50.125Z,980.857
2018-05-21T13:36:50.383Z,980.806
2018-05-21T13:38:50.512Z,980.766
2018-05-21T13:40:49.718Z,980.766
2018-05-21T13:42:49.852Z,980.692
2018-05-21T13:44:50.005Z,980.682
2018-05-21T13:46:50.264Z,980.654
2018-05-21T13:48:50.429Z,980.647
2018-05-21T13:50:50.534Z,980.619
2018-05-21T13:52:49.674Z,980.583
2018-05-21T13:54:49.806Z,980.559
2018-05-21T13:56:50.068Z,980.522
2018-05-21T13:58:50.349Z,980.502
2018-05-21T14:00:49.696Z,980.418
2018-05-21T14:02:49.845Z,980.351
2018-05-21T14:04:50.094Z,980.285
2018-05-21T14:06:50.304Z,980.265
2018-05-21T14:08:50.478Z,980.243
2018-05-21T14:10:49.663Z,980.201
2018-05-21T14:12:49.751Z,980.201
2018-05-21T14:14:49.899Z,980.220
2018-05-21T14:16:50.099Z,980.200
2018-05-21T14:18:50.291Z,980.212
2018-05-21T14:20:50.491Z,980.176
2018-05-21T14:22:49.763Z,980.107
2018-05-21T14:24:49.909Z,980.085
2018-05-21T14:26:50.093Z,980.087
2018-05-21T14:28:50.252Z,980.093
2018-05-21T14:30:50.358Z,980.093
2018-05-21T14:32:50.532Z,980.035
2018-05-21T14:34:49.886Z,980.005
2018-05-21T14:36:50.108Z,979.965
2018-05-21T14:38:50.264Z,979.965
2018-05-21T14:40:50.514Z,979.914
2018-05-21T14:42:49.757Z,979.894
2018-05-21T14:44:49.846Z,979.863
2018-05-21T14:46:50.055Z,979.863
2018-05-21T14:48:50.293Z,979.815
2018-05-21T14:50:50.437Z,979.797
2018-05-21T14:52:50.525Z,979.761
2018-05-21T14:54:49.625Z,979.717
2018-05-21T14:56:49.857Z,979.709
2018-05-21T14:58:49.956Z,979.665
2018-05-21T15:00:50.093Z,979.654
2018-05-21T15:02:50.242Z,979.619
2018-05-21T15:04:50.533Z,979.587
2018-05-21T15:06:49.801Z,979.555
2018-05-21T15:08:49.933Z,979.574
2018-05-21T15:10:50.067Z,979.581
2018-05-21T15:12:50.183Z,979.639
2018-05-21T15:14:50.329Z,979.642
2018-05-21T15:16:50.528Z,979.592
2018-05-21T15:18:49.670Z,979.588
2018-05-21T15:20:49.801Z,979.569
2018-05-21T15:22:49.892Z,979.562
2018-05-21T15:24:50.012Z,979.568
2018-05-21T15:26:50.198Z,979.579
2018-05-21T15:28:50.312Z,979.582
2018-05-21T15:30:50.408Z,979.606
2018-05-21T15:32:50.597Z,979.606
2018-05-21T15:34:49.947Z,979.598
2018-05-21T15:36:50.193Z,979.574
2018-05-21T15:38:50.331Z,979.557
2018-05-21T15:40:50.491Z,979.529
2018-05-21T15:42:49.667Z,979.505
2018-05-21T15:44:49.810Z,979.450
2018-05-21T15:46:49.978Z,979.435
2018-05-21T15:48:50.233Z,979.409
2018-05-21T15:50:50.314Z,979.402
2018-05-21T15:52:50.537Z,979.367
2018-05-21T15:54:49.667Z,979.362
2018-05-21T15:56:49.890Z,979.340
2018-05-21T15:58:50.091Z,979.315
2018-05-21T16:00:50.221Z,979.335
2018-05-21T16:02:50.438Z,979.370
2018-05-21T16:04:49.785Z,979.363
2018-05-21T16:06:50.034Z,979.370
2018-05-21T16:08:50.267Z,979.371
2018-05-21T16:10:50.488Z,979.331
2018-05-21T16:12:49.711Z,979.305
2018-05-21T16:14:49.928Z,979.328
2018-05-21T16:16:50.133Z,979.322
2018-05-21T16:18:50.282Z,979.323
2018-05-21T16:20:50.539Z,979.314
2018-05-21T16:22:49.680Z,979.299
2018-05-21T16:24:49.856Z,979.299
2018-05-21T16:26:50.067Z,979.289
2018-05-21T16:28:50.175Z,979.286
2018-05-21T16:30:50.307Z,979.341
2018-05-21T16:32:50.426Z,979.345
2018-05-21T16:34:49.749Z,979.347
2018-05-21T16:36:50.003Z,979.342
2018-05-21T16:38:50.128Z,979.352
2018-05-21T16:40:50.250Z,979.352
2018-05-21T16:42:50.339Z,979.318
2018-05-21T16:44:50.549Z,979.311
2018-05-21T16:46:49.728Z,979.306
2018-05-21T16:48:49.838Z,979.322
2018-05-21T16:50:50.196Z,979.332
2018-05-21T16:52:49.689Z,979.361
2018-05-21T16:54:49.911Z,979.339
2018-05-21T16:56:50.124Z,979.332
2018-05-21T16:58:50.219Z,979.293
2018-05-21T17:00:50.361Z,979.300
2018-05-21T17:02:50.514Z,979.402
2018-05-21T17:04:50.017Z,979.434
2018-05-21T17:06:50.290Z,979.473
2018-05-21T17:08:50.382Z,979.459
2018-05-21T17:10:50.520Z,979.475
2018-05-21T17:12:50.692Z,979.518
2018-05-21T17:14:49.824Z,979.518
2018-05-21T17:16:50.129Z,979.562
2018-05-21T17:18:50.254Z,979.610
2018-05-21T17:20:50.367Z,979.642
2018-05-21T17:22:50.484Z,979.649
2018-05-21T17:24:50.742Z,979.674
2018-05-21T17:26:50.446Z,979.702
2018-05-21T17:28:49.940Z,979.709
2018-05-21T17:30:50.474Z,979.730
2018-05-21T17:32:50.058Z,979.770
2018-05-21T17:34:49.870Z,979.770
2018-05-21T17:36:50.509Z,979.815
2018-05-21T17:38:50.053Z,979.817
2018-05-21T17:40:50.328Z,979.824
2018-05-21T17:42:50.474Z,979.816
2018-05-21T17:44:49.617Z,979.815
2018-05-21T17:46:49.844Z,979.834
2018-05-21T17:48:50.045Z,979.838
2018-05-21T17:50:50.189Z,979.853
2018-05-21T17:52:50.298Z,979.855
2018-05-21T17:54:50.438Z,979.852
2018-05-21T17:56:49.677Z,979.856
2018-05-21T17:58:49.810Z,979.852
2018-05-21T18:00:50.014Z,979.876
2018-05-21T18:02:50.113Z,979.859
2018-05-21T18:04:50.412Z,979.852
2018-05-21T18:06:49.623Z,979.876
2018-05-21T18:08:50.079Z,979.870
2018-05-21T18:10:50.537Z,979.855
2018-05-21T18:12:49.719Z,979.853
2018-05-21T18:14:49.957Z,979.842
2018-05-21T18:16:50.212Z,979.832
2018-05-21T18:18:50.500Z,979.825
2018-05-21T18:20:50.066Z,979.824
2018-05-21T18:22:50.192Z,979.832
2018-05-21T18:24:50.288Z,979.851
2018-05-21T18:26:50.482Z,979.849
2018-05-21T18:28:49.625Z,979.872
2018-05-21T18:30:49.752Z,979.867
2018-05-21T18:32:49.845Z,979.874
2018-05-21T18:34:50.220Z,979.847
2018-05-21T18:36:50.368Z,979.847
2018-05-21T18:38:50.476Z,979.834
2018-05-21T18:40:50.596Z,979.832
2018-05-21T18:42:49.824Z,979.817
2018-05-21T18:44:49.989Z,979.797
2018-05-21T18:46:50.187Z,979.816
2018-05-21T18:48:50.327Z,979.822
2018-05-21T18:50:50.459Z,979.831
2018-05-21T18:52:50.584Z,979.832
2018-05-21T18:54:49.667Z,979.838
2018-05-21T18:56:49.809Z,979.838
2018-05-21T18:58:49.927Z,979.850
2018-05-21T19:00:50.097Z,979.875
2018-05-21T19:02:50.199Z,979.893
2018-05-21T19:04:50.492Z,979.904
2018-05-21T19:06:49.781Z,979.912
2018-05-21T19:08:50.004Z,979.922
2018-05-21T19:10:50.123Z,979.941
2018-05-21T19:12:50.272Z,979.957
2018-05-21T19:14:50.497Z,979.962
2018-05-21T19:16:49.651Z,979.955
2018-05-21T19:18:49.835Z,979.945
2018-05-21T19:20:49.933Z,979.946
2018-05-21T19:22:50.058Z,979.957
2018-05-21T19:24:50.166Z,979.973
2018-05-21T19:26:50.518Z,979.997
2018-05-21T19:28:49.684Z,980.019
2018-05-21T19:30:49.820Z,980.031
2018-05-21T19:32:49.967Z,980.041
2018-05-21T19:34:50.341Z,980.081
2018-05-21T19:36:50.506Z,980.083
2018-05-21T19:38:50.591Z,980.088
2018-05-21T19:40:49.755Z,980.102
2018-05-21T19:42:49.894Z,980.124
2018-05-21T19:44:50.030Z,980.127
2018-05-21T19:46:50.332Z,980.146
2018-05-21T19:48:50.437Z,980.154
2018-05-21T19:50:50.600Z,980.161
2018-05-21T19:52:49.724Z,980.166
2018-05-21T19:54:49.853Z,980.157
2018-05-21T19:56:50.034Z,980.167
2018-05-21T19:58:50.164Z,980.202
2018-05-21T20:00:50.271Z,980.202
2018-05-21T20:02:50.411Z,980.208
2018-05-21T20:04:50.050Z,980.187
2018-05-21T20:06:50.309Z,980.187
2018-05-21T20:08:50.435Z,980.150
2018-05-21T20:10:50.540Z,980.141
2018-05-21T20:12:49.652Z,980.131
2018-05-21T20:14:49.788Z,980.115
2018-05-21T20:16:50.031Z,980.106
2018-05-21T20:18:50.177Z,980.089
2018-05-21T20:20:50.275Z,980.082
2018-05-21T20:22:50.412Z,980.085
2018-05-21T20:24:50.529Z,980.089
2018-05-21T20:26:49.838Z,980.104
2018-05-21T20:28:50.023Z,980.107
2018-05-21T20:30:50.155Z,980.116
2018-05-21T20:32:50.495Z,980.134
2018-05-21T20:34:49.851Z,980.133
2018-05-21T20:36:50.097Z,980.123
2018-05-21T20:38:50.217Z,980.132
2018-05-21T20:40:50.352Z,980.152
2018-05-21T20:42:50.570Z,980.143
2018-05-21T20:44:49.733Z,980.113
2018-05-21T20:46:49.962Z,980.104
2018-05-21T20:48:50.159Z,980.096
2018-05-21T20:50:50.295Z,980.096
2018-05-21T20:52:50.519Z,980.113
2018-05-21T20:54:49.674Z,980.094
2018-05-21T20:56:49.856Z,980.098
2018-05-21T20:58:50.004Z,980.100
2018-05-21T21:00:50.142Z,980.148
2018-05-21T21:02:50.325Z,980.172
2018-05-21T21:04:50.657Z,980.189
2018-05-21T21:06:49.870Z,980.189
2018-05-21T21:08:50.030Z,980.216
2018-05-21T21:10:50.167Z,980.231
2018-05-21T21:12:50.353Z,980.263
2018-05-21T21:14:50.569Z,980.297
2018-05-21T21:16:49.909Z,980.306
2018-05-21T21:18:50.041Z,980.314
2018-05-21T21:20:50.222Z,980.301
2018-05-21T21:22:50.388Z,980.272
2018-05-21T21:24:50.576Z,980.270
2018-05-21T21:26:49.729Z,980.266
2018-05-21T21:28:49.884Z,980.272
2018-05-21T21:30:50.031Z,980.264
2018-05-21T21:32:50.248Z,980.277
2018-05-21T21:34:49.864Z,980.277
2018-05-21T21:36:50.098Z,980.268
2018-05-21T21:38:50.239Z,980.268
2018-05-21T21:40:50.400Z,980.270
2018-05-21T21:42:50.559Z,980.283
2018-05-21T21:44:49.774Z,980.291
2018-05-21T21:46:50.120Z,980.295
2018-05-21T21:48:50.311Z,980.288
2018-05-21T21:50:50.476Z,980.289
2018-05-21T21:52:49.637Z,980.302
2018-05-21T21:54:49.747Z,980.295
2018-05-21T21:56:49.953Z,980.284
2018-05-21T21:58:50.172Z,980.285
2018-05-21T22:00:50.374Z,980.288
2018-05-21T22:02:50.532Z,980.294
2018-05-21T22:04:49.914Z,980.287
2018-05-21T22:06:50.145Z,980.273
2018-05-21T22:08:50.357Z,980.273
2018-05-21T22:10:50.476Z,980.252
2018-05-21T22:12:49.695Z,980.245
2018-05-21T22:14:49.847Z,980.242
2018-05-21T22:16:50.049Z,980.261
2018-05-21T22:18:50.189Z,980.268
2018-05-21T22:20:50.395Z,980.267
2018-05-21T22:22:50.554Z,980.251
2018-05-21T22:24:49.627Z,980.284
2018-05-21T22:26:49.792Z,980.297
2018-05-21T22:28:49.929Z,980.301
2018-05-21T22:30:50.036Z,980.295
2018-05-21T22:32:50.322Z,980.283
2018-05-21T22:34:49.802Z,980.277
2018-05-21T22:36:50.057Z,980.267
2018-05-21T22:38:50.214Z,980.267
2018-05-21T22:40:50.407Z,980.270
2018-05-21T22:42:50.591Z,980.248
2018-05-21T22:44:49.697Z,980.238
2018-05-21T22:46:49.963Z,980.228
2018-05-21T22:48:50.186Z,980.207
2018-05-21T22:50:50.333Z,980.216
2018-05-21T22:52:50.494Z,980.215
2018-05-21T22:54:50.578Z,980.212
2018-05-21T22:56:49.799Z,980.204
2018-05-21T22:58:49.886Z,980.213
2018-05-21T23:00:50.025Z,980.221
2018-05-21T23:02:50.161Z,980.240
2018-05-21T23:04:50.425Z,980.244
2018-05-21T23:06:50.579Z,980.214
2018-05-21T23:08:49.699Z,980.207
2018-05-21T23:10:49.876Z,980.187
2018-05-21T23:12:49.988Z,980.184
2018-05-21T23:14:50.136Z,980.188
2018-05-21T23:16:50.325Z,980.166
2018-05-21T23:18:50.532Z,980.166
2018-05-21T23:20:49.686Z,980.143
2018-05-21T23:22:49.871Z,980.124
2018-05-21T23:24:50.037Z,980.100
2018-05-21T23:26:50.274Z,980.088
2018-05-21T23:28:50.423Z,980.068
2018-05-21T23:30:50.548Z,980.062
2018-05-21T23:32:49.763Z,980.048
2018-05-21T23:34:50.168Z,980.027
2018-05-21T23:36:50.360Z,980.019
2018-05-21T23:38:50.536Z,979.997
2018-05-21T23:40:49.624Z,979.999
2018-05-21T23:42:49.795Z,979.985
2018-05-21T23:44:49.922Z,979.985
2018-05-21T23:46:50.106Z,979.974
2018-05-21T23:48:50.241Z,979.974
2018-05-21T23:50:50.381Z,979.970
2018-05-21T23:52:50.522Z,979.970
2018-05-21T23:54:50.676Z,979.972
2018-05-21T23:56:49.945Z,979.962
2018-05-21T23:58:50.044Z,979.966
